createdAt,value
2022-08-25T00:06:51.530Z,11.40
2022-08-25T00:16:58.572Z,11.10
2022-08-25T00:27:05.388Z,9.70
2022-08-25T00:37:11.776Z,13.30
2022-08-25T00:47:18.789Z,12.90
2022-08-25T00:57:33.987Z,12.70
2022-08-25T01:07:43.498Z,10.20
2022-08-25T01:17:56.773Z,12.60
2022-08-25T01:28:03.456Z,11.70
2022-08-25T01:38:09.992Z,13.10
2022-08-25T01:48:17.080Z,11.60
2022-08-25T01:58:26.211Z,13.30
2022-08-25T02:08:32.556Z,15.60
2022-08-25T02:18:38.892Z,10.10
2022-08-25T02:28:45.911Z,14.00
2022-08-25T02:38:52.313Z,11.30
2022-08-25T02:48:59.194Z,13.40
2022-08-25T02:59:05.815Z,12.50
2022-08-25T03:09:12.297Z,11.40
2022-08-25T03:19:19.343Z,10.80
2022-08-25T03:29:30.856Z,13.90
2022-08-25T03:39:37.238Z,11.50
2022-08-25T03:49:43.561Z,11.90
2022-08-25T03:59:49.900Z,13.80
2022-08-25T04:09:57.350Z,10.90
2022-08-25T04:20:03.846Z,9.90
2022-08-25T04:30:11.133Z,11.30
2022-08-25T04:40:17.660Z,11.50
2022-08-25T04:50:24.052Z,13.40
2022-08-25T05:00:30.437Z,16.70
2022-08-25T05:10:41.055Z,13.10
2022-08-25T05:20:48.811Z,13.90
2022-08-25T05:31:00.260Z,13.40
2022-08-25T05:41:09.068Z,13.20
2022-08-25T05:51:16.252Z,16.50
2022-08-25T06:01:46.687Z,20.70
2022-08-25T06:11:55.143Z,25.80
2022-08-25T06:22:01.840Z,24.90
2022-08-25T06:32:08.226Z,23.50
2022-08-25T06:42:14.582Z,22.60
2022-08-25T06:52:20.986Z,19.90
2022-08-25T07:02:28.104Z,29.30
2022-08-25T07:12:35.702Z,27.90
2022-08-25T07:22:42.604Z,27.30
2022-08-25T07:32:55.145Z,34.40
2022-08-25T07:43:04.667Z,27.40
2022-08-25T07:53:12.754Z,28.10
2022-08-25T08:03:42.198Z,30.50
2022-08-25T08:13:48.601Z,31.15
2022-08-25T08:23:59.123Z,30.70
2022-08-25T08:34:05.971Z,28.00
2022-08-25T08:44:39.428Z,33.30
2022-08-25T08:54:47.680Z,33.00
2022-08-25T09:04:59.144Z,31.40
2022-08-25T09:15:55.315Z,40.20
2022-08-25T09:26:25.239Z,31.40
2022-08-25T09:36:37.273Z,34.60
2022-08-25T09:46:56.644Z,37.20
2022-08-25T09:57:03.364Z,38.00
2022-08-25T10:07:26.695Z,37.30
2022-08-25T10:17:34.003Z,36.80
2022-08-25T10:27:46.472Z,41.00
2022-08-25T10:38:03.575Z,33.00
2022-08-25T10:48:28.626Z,34.70
2022-08-25T10:58:55.830Z,33.10
2022-08-25T11:09:05.720Z,36.50
2022-08-25T11:19:44.357Z,35.40
2022-08-25T11:29:58.563Z,37.30
2022-08-25T11:40:16.116Z,28.40
2022-08-25T11:50:35.175Z,30.50
2022-08-25T12:00:44.097Z,35.10
2022-08-25T12:10:53.323Z,33.20
2022-08-25T12:21:03.501Z,29.90
2022-08-25T12:31:25.381Z,33.70
2022-08-25T12:41:35.659Z,26.60
2022-08-25T12:51:48.745Z,23.40
2022-08-25T13:02:13.780Z,27.40
2022-08-25T13:12:52.289Z,31.10
2022-08-25T13:23:01.061Z,30.40
2022-08-25T13:33:21.914Z,22.90
2022-08-25T13:43:28.515Z,29.60
2022-08-25T13:53:35.571Z,22.70
2022-08-25T14:03:45.661Z,23.80
2022-08-25T14:14:05.107Z,27.70
2022-08-25T14:24:11.777Z,27.00
2022-08-25T14:34:21.655Z,23.90
2022-08-25T14:44:27.950Z,25.50
2022-08-25T14:54:37.162Z,24.70
2022-08-25T15:04:49.158Z,25.00
2022-08-25T15:14:58.732Z,23.70
2022-08-25T15:25:05.805Z,31.50
2022-08-25T15:35:15.285Z,22.75
2022-08-25T15:45:22.051Z,24.10
2022-08-25T15:55:30.559Z,30.10
2022-08-25T16:05:47.929Z,23.40
2022-08-25T16:15:56.269Z,24.40
2022-08-25T16:26:06.388Z,22.90
2022-08-25T16:36:24.349Z,30.40
2022-08-25T16:46:33.638Z,27.30
2022-08-25T16:56:43.403Z,30.80
2022-08-25T17:06:52.160Z,26.60
2022-08-25T17:16:58.617Z,25.20
2022-08-25T17:27:06.211Z,24.30
2022-08-25T17:37:12.952Z,25.20
2022-08-25T17:47:20.709Z,14.50
2022-08-25T17:57:27.288Z,11.20
2022-08-25T18:07:33.983Z,10.80
2022-08-25T18:17:40.762Z,10.70
2022-08-25T18:27:47.290Z,14.40
2022-08-25T18:38:12.630Z,12.50
2022-08-25T18:48:21.408Z,13.60
2022-08-25T18:58:33.304Z,13.10
2022-08-25T19:08:41.865Z,14.50
2022-08-25T19:18:50.541Z,15.70
2022-08-25T19:28:58.817Z,17.60
2022-08-25T19:39:07.547Z,17.40
2022-08-25T19:59:43.439Z,19.90
2022-08-25T20:09:50.912Z,18.60
2022-08-25T20:20:01.880Z,17.90
2022-08-25T20:30:18.573Z,19.50
2022-08-25T20:40:29.406Z,17.10
2022-08-25T20:50:35.935Z,19.20
2022-08-25T21:00:45.534Z,16.70
2022-08-25T21:10:51.907Z,19.00
2022-08-25T21:20:58.253Z,16.90
2022-08-25T21:31:07.927Z,18.80
2022-08-25T21:41:17.534Z,18.90
2022-08-25T21:51:27.219Z,16.50
2022-08-25T22:01:33.708Z,18.60
2022-08-25T22:11:42.080Z,16.30
2022-08-25T22:21:48.535Z,17.80
2022-08-25T22:31:59.361Z,19.90
2022-08-25T22:42:08.675Z,17.20
2022-08-25T22:52:15.089Z,18.60
2022-08-25T23:02:21.412Z,16.20
2022-08-25T23:12:27.741Z,19.50
2022-08-25T23:22:34.054Z,16.30
2022-08-25T23:32:41.896Z,15.30
2022-08-25T23:42:48.598Z,17.40
2022-08-25T23:52:55.143Z,17.30
